Time;durP1;ratioP1;P1;durP2;ratioP2;P2;SDS_P1;SDS_P2;PMS_P1;PMS_P2;Temp;Humidity;BMP_temperature;BMP_pressure;BME280_temperature;BME280_humidity;BME280_pressure;Samples;Min_cycle;Max_cycle;Signal;HPM_P1;HPM_P2
2021/08/09 00:01:18;;;;;;;1.95;0.45;;;;;;;18.07;65.92;100394.72;125844;1096;22817;-78
2021/08/09 00:03:49;;;;;;;3.70;0.60;;;;;;;17.99;65.92;100402.23;125863;1095;22809;-79
2021/08/09 00:06:23;;;;;;;3.00;0.47;;;;;;;17.93;66.02;100395.88;125856;1095;22807;-79
2021/08/09 00:08:56;;;;;;;3.57;0.43;;;;;;;17.89;65.72;100400.27;125940;1095;25906;-79
2021/08/09 00:11:27;;;;;;;3.90;0.50;;;;;;;17.83;66.10;100400.33;125847;1096;22770;-79
2021/08/09 00:13:58;;;;;;;3.80;0.50;;;;;;;17.75;65.97;100402.19;125794;1095;27266;-79
2021/08/09 00:16:31;;;;;;;2.60;0.45;;;;;;;17.70;65.83;100400.16;125814;1095;22791;-78
2021/08/09 00:19:03;;;;;;;2.13;0.60;;;;;;;17.68;66.14;100406.34;125830;1096;22794;-79
2021/08/09 00:21:34;;;;;;;1.27;0.33;;;;;;;17.63;66.24;100409.19;125834;1095;23545;-80
2021/08/09 00:24:06;;;;;;;4.00;0.50;;;;;;;17.59;66.10;100403.83;125824;1096;22747;-79
2021/08/09 00:26:40;;;;;;;2.35;0.50;;;;;;;17.55;66.36;100408.22;125862;1095;26140;-79
2021/08/09 00:29:11;;;;;;;1.75;0.30;;;;;;;17.47;66.35;100402.34;126306;1096;22791;-79
2021/08/09 00:31:51;;;;;;;2.90;0.40;;;;;;;17.39;66.39;100404.20;126073;1096;22863;-80
2021/08/09 00:34:22;;;;;;;1.77;0.30;;;;;;;17.34;66.44;100395.77;126199;1095;22754;-81
2021/08/09 00:36:54;;;;;;;1.50;0.30;;;;;;;17.27;66.38;100396.31;126029;1096;22806;-78
2021/08/09 00:39:28;;;;;;;2.65;0.40;;;;;;;17.24;66.50;100397.34;125760;1096;22812;-78
2021/08/09 00:42:00;;;;;;;3.65;0.45;;;;;;;17.22;66.33;100397.09;125810;1096;24595;-79
2021/08/09 00:44:31;;;;;;;2.50;0.30;;;;;;;17.18;66.71;100396.61;126020;1096;26614;-80
2021/08/09 00:47:02;;;;;;;1.55;0.35;;;;;;;17.16;66.94;100397.14;125786;1095;22864;-79
2021/08/09 00:49:33;;;;;;;1.37;0.47;;;;;;;17.11;66.81;100400.00;125860;1096;24565;-80
2021/08/09 00:52:05;;;;;;;1.70;0.35;;;;;;;17.08;66.69;100406.66;125825;1094;22871;-78
2021/08/09 00:54:38;;;;;;;2.10;0.50;;;;;;;17.04;66.60;100406.95;125846;1096;25970;-78
2021/08/09 00:57:09;;;;;;;3.20;0.40;;;;;;;17.03;66.88;100404.66;125882;1096;22817;-78
2021/08/09 00:59:41;;;;;;;2.15;0.50;;;;;;;17.01;66.54;100404.41;125839;1096;22796;-79
2021/08/09 01:02:15;;;;;;;2.50;0.20;;;;;;;16.98;66.63;100403.39;125924;1096;25967;-79
2021/08/09 01:04:46;;;;;;;1.50;0.30;;;;;;;16.97;66.62;100410.30;125797;1096;22809;-79
2021/08/09 01:07:18;;;;;;;4.55;0.30;;;;;;;16.95;66.63;100410.05;125878;1095;22816;-79
2021/08/09 01:09:56;;;;;;;1.20;0.27;;;;;;;16.91;66.89;100410.33;125838;1095;22849;-79
2021/08/09 01:12:35;;;;;;;1.90;0.30;;;;;;;16.88;66.40;100411.36;125790;1096;22788;-79
2021/08/09 01:15:12;;;;;;;0.90;0.20;;;;;;;16.88;66.85;100411.36;125746;1096;26300;-78
2021/08/09 01:17:46;;;;;;;7.00;0.50;;;;;;;16.85;66.72;100412.41;125852;1095;25877;-79
2021/08/09 01:20:48;;;;;;;3.00;0.40;;;;;;;16.83;66.35;100419.84;125918;1095;22802;-79
2021/08/09 01:23:29;;;;;;;1.65;0.30;;;;;;;16.81;66.73;100416.78;125879;1096;26986;-78
2021/08/09 01:26:05;;;;;;;4.30;0.20;;;;;;;16.78;66.45;100417.83;125748;1096;22872;-79
2021/08/09 01:28:37;;;;;;;2.40;0.30;;;;;;;16.75;66.71;100422.45;125759;1096;22828;-79
2021/08/09 01:31:09;;;;;;;1.30;0.40;;;;;;;16.72;66.38;100429.11;125767;1095;28535;-78
2021/08/09 01:33:42;;;;;;;2.30;0.30;;;;;;;16.68;66.58;100430.65;125919;1096;22808;-80
2021/08/09 01:36:15;;;;;;;1.90;0.20;;;;;;;16.63;66.70;100437.09;125713;1096;23005;-79
2021/08/09 01:38:50;;;;;;;2.20;0.40;;;;;;;16.58;66.61;100430.17;125801;1096;22884;-79
2021/08/09 01:41:25;;;;;;;4.00;0.20;;;;;;;16.53;66.85;100433.76;125841;1096;22882;-79
2021/08/09 01:43:56;;;;;;;1.00;0.20;;;;;;;16.50;66.87;100439.67;125789;1095;22819;-79
2021/08/09 01:46:28;;;;;;;1.57;0.20;;;;;;;16.46;66.74;100442.73;125726;1097;22868;-78
2021/08/09 01:49:00;;;;;;;1.10;0.30;;;;;;;16.44;66.61;100450.92;125736;1096;22792;-79
2021/08/09 01:51:32;;;;;;;1.60;0.30;;;;;;;16.43;66.77;100451.45;125721;1097;23479;-79
2021/08/09 01:54:04;;;;;;;0.80;0.25;;;;;;;16.43;66.63;100454.27;125723;1096;26005;-79
2021/08/09 01:56:36;;;;;;;2.13;0.30;;;;;;;16.42;66.79;100445.04;125859;1096;27558;-80
2021/08/09 01:59:10;;;;;;;1.05;0.30;;;;;;;16.42;66.65;100449.90;125842;1096;22777;-81
2021/08/09 02:01:44;;;;;;;1.33;0.30;;;;;;;16.42;66.62;100452.72;125701;1096;22805;-79
2021/08/09 02:04:17;;;;;;;1.60;0.30;;;;;;;16.41;66.28;100448.38;125698;1096;28483;-79
2021/08/09 02:06:48;;;;;;;0.90;0.30;;;;;;;16.42;66.27;100455.53;125695;1095;26271;-80
2021/08/09 02:09:22;;;;;;;1.85;0.30;;;;;;;16.41;66.47;100463.22;125702;1096;22883;-79
2021/08/09 02:11:56;;;;;;;1.10;0.30;;;;;;;16.40;66.18;100458.88;125825;1096;22779;-79
2021/08/09 02:14:37;;;;;;;1.30;0.40;;;;;;;16.36;66.46;100461.19;125810;1096;22813;-79
2021/08/09 02:17:14;;;;;;;2.53;0.30;;;;;;;16.36;66.16;100468.86;125777;1096;22780;-82
2021/08/09 02:19:53;;;;;;;4.05;0.45;;;;;;;16.32;66.67;100476.81;125688;1096;22844;-79
2021/08/09 02:22:34;;;;;;;4.85;0.30;;;;;;;16.27;66.67;100477.56;125708;1096;22832;-80
2021/08/09 02:25:11;;;;;;;1.67;0.33;;;;;;;16.25;66.83;100480.13;125820;1095;26815;-79
2021/08/09 02:27:45;;;;;;;1.45;0.30;;;;;;;16.24;66.39;100487.06;125857;1096;22844;-79
2021/08/09 02:30:20;;;;;;;2.65;0.40;;;;;;;16.20;66.53;100492.95;125799;1096;24723;-79
2021/08/09 02:32:54;;;;;;;1.80;0.30;;;;;;;16.16;66.66;100493.19;125752;1096;26305;-78
2021/08/09 02:35:27;;;;;;;1.80;0.30;;;;;;;16.10;66.60;100500.88;125803;1096;24388;-78
2021/08/09 02:37:59;;;;;;;2.75;0.20;;;;;;;16.06;66.72;100499.59;125935;1096;22884;-79
2021/08/09 02:40:30;;;;;;;2.55;0.40;;;;;;;16.04;66.89;100504.95;125946;1095;22780;-80
2021/08/09 02:43:03;;;;;;;0.83;0.27;;;;;;;16.00;67.09;100524.16;125746;1096;28069;-79
2021/08/09 02:45:36;;;;;;;2.15;0.40;;;;;;;15.96;66.90;100523.64;125827;1096;22836;-80
2021/08/09 02:48:08;;;;;;;1.10;0.30;;;;;;;15.91;67.09;100532.86;125803;1095;26270;-78
2021/08/09 02:50:40;;;;;;;2.37;0.40;;;;;;;15.86;67.24;100525.94;125808;1096;22786;-79
2021/08/09 02:53:12;;;;;;;1.60;0.33;;;;;;;15.80;67.15;100546.91;125800;1096;25884;-80
2021/08/09 02:55:44;;;;;;;4.00;0.40;;;;;;;15.74;67.04;100540.49;125769;1096;22778;-79
2021/08/09 02:58:16;;;;;;;2.80;0.40;;;;;;;15.70;67.33;100545.59;125826;1096;26551;-78
2021/08/09 03:00:50;;;;;;;1.25;0.20;;;;;;;15.64;67.39;100539.19;125829;1096;22937;-78
2021/08/09 03:03:25;;;;;;;3.70;0.30;;;;;;;15.59;67.34;100545.55;125757;1095;23776;-80
2021/08/09 03:05:59;;;;;;;1.10;0.50;;;;;;;15.53;67.49;100556.02;125820;1096;23158;-78
2021/08/09 03:08:31;;;;;;;2.65;0.35;;;;;;;15.48;67.26;100551.16;125865;1096;22821;-78
2021/08/09 03:11:03;;;;;;;1.95;0.30;;;;;;;15.46;67.29;100548.08;125870;1096;22805;-78
2021/08/09 03:13:36;;;;;;;2.65;0.20;;;;;;;15.40;67.42;100551.59;125710;1096;22764;-79
2021/08/09 03:16:10;;;;;;;1.10;0.20;;;;;;;15.35;67.90;100548.77;125924;1096;28509;-78
2021/08/09 03:18:41;;;;;;;1.50;0.40;;;;;;;15.31;67.56;100553.86;125841;1096;24631;-79
2021/08/09 03:21:12;;;;;;;3.40;0.40;;;;;;;15.28;68.02;100547.20;125716;1095;22806;-79
2021/08/09 03:23:43;;;;;;;3.70;0.30;;;;;;;15.25;67.93;100555.85;125705;1095;22937;-79
2021/08/09 03:26:14;;;;;;;3.17;0.40;;;;;;;15.21;68.01;100556.10;125771;1096;22886;-78
2021/08/09 03:28:45;;;;;;;2.65;0.30;;;;;;;15.18;68.23;100562.75;125739;1096;23424;-78
2021/08/09 03:31:17;;;;;;;1.80;0.40;;;;;;;15.16;68.61;100573.73;125846;1096;22870;-79
2021/08/09 03:33:48;;;;;;;3.45;0.45;;;;;;;15.12;68.73;100573.20;125732;1096;22870;-79
2021/08/09 03:36:20;;;;;;;2.95;0.45;;;;;;;15.11;68.55;100579.30;125685;1097;27367;-78
2021/08/09 03:38:52;;;;;;;3.10;0.60;;;;;;;15.06;68.73;100580.06;125746;1096;22801;-78
2021/08/09 03:41:24;;;;;;;2.67;0.43;;;;;;;15.01;68.48;100589.99;125846;1096;22834;-78
2021/08/09 03:43:58;;;;;;;2.13;0.40;;;;;;;14.97;68.55;100591.48;125700;1096;25999;-79
2021/08/09 03:46:29;;;;;;;3.05;0.40;;;;;;;14.92;68.56;100592.23;126044;1096;22945;-78
2021/08/09 03:49:03;;;;;;;3.55;0.60;;;;;;;14.89;69.20;100593.22;125760;1096;22816;-78
2021/08/09 03:51:36;;;;;;;2.97;0.30;;;;;;;14.83;68.96;100598.81;125748;1096;22794;-79
2021/08/09 03:54:07;;;;;;;7.07;0.50;;;;;;;14.78;69.17;100605.16;125734;1096;26565;-79
2021/08/09 03:56:39;;;;;;;5.90;0.40;;;;;;;14.74;69.24;100598.21;125741;1096;23462;-80
2021/08/09 03:59:10;;;;;;;4.90;0.50;;;;;;;14.71;69.37;100596.42;125814;1096;27639;-79
2021/08/09 04:01:41;;;;;;;2.37;0.43;;;;;;;14.68;69.67;100606.61;125675;1096;22925;-79
2021/08/09 04:04:14;;;;;;;4.00;0.60;;;;;;;14.62;69.49;100610.64;125733;1096;22775;-79
2021/08/09 04:06:48;;;;;;;2.27;0.40;;;;;;;14.59;70.03;100601.94;125789;1096;22788;-78
2021/08/09 04:09:21;;;;;;;2.33;0.40;;;;;;;14.55;69.95;100601.39;125761;1096;27317;-78
2021/08/09 04:11:52;;;;;;;3.00;0.50;;;;;;;14.52;70.26;100598.81;125718;1096;22813;-78
2021/08/09 04:14:25;;;;;;;2.17;0.50;;;;;;;14.49;70.28;100606.20;125800;1095;22813;-78
2021/08/09 04:16:56;;;;;;;3.40;0.53;;;;;;;14.46;70.59;100612.80;125729;1095;22788;-81
2021/08/09 04:19:28;;;;;;;2.95;0.40;;;;;;;14.45;70.68;100607.68;125709;1096;25884;-79
2021/08/09 04:21:59;;;;;;;2.35;0.70;;;;;;;14.47;70.44;100605.92;125879;1096;22978;-78
2021/08/09 04:24:33;;;;;;;3.85;0.75;;;;;;;14.50;71.15;100618.20;125731;1096;22800;-78
2021/08/09 04:27:04;;;;;;;1.55;0.50;;;;;;;14.53;71.01;100611.58;125729;1096;22777;-79
2021/08/09 04:29:35;;;;;;;3.87;0.60;;;;;;;14.55;71.34;100617.47;125786;1096;22946;-78
2021/08/09 04:32:16;;;;;;;3.80;0.50;;;;;;;14.58;71.16;100622.11;125820;1096;22803;-78
2021/08/09 04:34:50;;;;;;;6.13;0.50;;;;;;;14.62;71.38;100625.47;125788;1096;22804;-79
2021/08/09 04:37:23;;;;;;;3.10;0.50;;;;;;;14.66;71.54;100631.63;125753;1096;22840;-79
2021/08/09 04:39:54;;;;;;;2.43;0.50;;;;;;;14.72;71.54;100638.06;125732;1096;22748;-79
2021/08/09 04:42:28;;;;;;;2.97;0.47;;;;;;;14.78;71.38;100632.48;125679;1096;27742;-76
2021/08/09 04:45:00;;;;;;;2.63;0.57;;;;;;;14.85;71.33;100634.85;125848;1096;22942;-78
2021/08/09 04:47:31;;;;;;;3.13;0.50;;;;;;;14.91;71.63;100632.85;125762;1096;22785;-78
2021/08/09 04:50:02;;;;;;;4.07;0.40;;;;;;;14.99;71.85;100634.70;125719;1096;22816;-80
2021/08/09 04:52:39;;;;;;;4.70;0.60;;;;;;;15.06;71.72;100639.85;125726;1096;22812;-78
2021/08/09 04:55:13;;;;;;;7.95;0.50;;;;;;;15.15;71.53;100636.86;125690;1095;22908;-79
2021/08/09 04:57:44;;;;;;;2.93;0.57;;;;;;;15.26;71.91;100641.79;125787;1096;22828;-78
2021/08/09 05:00:17;;;;;;;4.37;0.53;;;;;;;15.36;71.88;100654.38;125700;1096;22853;-79
2021/08/09 05:02:48;;;;;;;4.80;0.50;;;;;;;15.44;71.72;100657.52;125796;1096;24630;-78
2021/08/09 05:05:19;;;;;;;2.47;0.60;;;;;;;15.53;72.29;100651.69;125790;1096;27325;-78
2021/08/09 05:07:53;;;;;;;3.45;0.60;;;;;;;15.62;72.03;100666.31;125711;1095;22764;-79
2021/08/09 05:10:25;;;;;;;3.13;0.40;;;;;;;15.69;71.74;100663.03;125872;1096;22813;-79
2021/08/09 05:12:56;;;;;;;3.30;0.60;;;;;;;15.78;71.71;100668.47;125667;1096;23373;-79
2021/08/09 05:15:30;;;;;;;2.30;0.57;;;;;;;15.88;72.10;100669.01;125640;1095;26270;-79
2021/08/09 05:18:02;;;;;;;2.70;0.60;;;;;;;15.98;71.66;100668.29;125848;1095;22873;-79
2021/08/09 05:20:36;;;;;;;5.50;0.60;;;;;;;16.06;71.77;100672.16;125796;1096;22773;-79
2021/08/09 05:23:08;;;;;;;2.65;0.60;;;;;;;16.18;71.57;100675.77;125769;1096;22835;-80
2021/08/09 05:25:40;;;;;;;3.05;0.80;;;;;;;16.28;71.56;100685.55;125740;1095;22936;-80
2021/08/09 05:28:13;;;;;;;4.78;0.50;;;;;;;16.39;71.28;100684.81;125820;1096;22888;-79
2021/08/09 05:30:45;;;;;;;3.65;0.70;;;;;;;16.47;71.84;100680.22;125743;1096;27169;-79
2021/08/09 05:33:17;;;;;;;3.60;0.30;;;;;;;16.57;70.88;100690.00;125727;1095;26609;-79
2021/08/09 05:35:48;;;;;;;4.35;0.60;;;;;;;16.64;70.86;100686.66;125777;1095;22783;-79
2021/08/09 05:38:23;;;;;;;5.50;0.70;;;;;;;16.70;70.60;100682.58;125802;1096;22810;-80
2021/08/09 05:40:54;;;;;;;2.10;0.40;;;;;;;16.81;70.53;100688.23;125594;1096;22870;-79
2021/08/09 05:43:30;;;;;;;2.70;0.50;;;;;;;16.88;70.07;100696.17;125651;1096;26526;-80
2021/08/09 05:46:02;;;;;;;4.47;0.50;;;;;;;16.94;70.77;100688.52;125677;1095;22867;-79
2021/08/09 05:48:35;;;;;;;3.57;0.60;;;;;;;17.08;71.12;100681.06;125804;1096;22873;-79
2021/08/09 05:51:06;;;;;;;10.05;0.90;;;;;;;17.18;71.32;100690.80;125805;1096;22902;-79
2021/08/09 05:53:40;;;;;;;6.35;0.60;;;;;;;17.29;70.82;100690.02;125777;1095;22949;-79
2021/08/09 05:56:11;;;;;;;2.95;0.70;;;;;;;17.34;70.58;100695.64;125854;1096;22799;-79
2021/08/09 05:58:45;;;;;;;1.77;0.40;;;;;;;17.37;69.93;100693.86;125663;1097;26268;-78
2021/08/09 06:01:17;;;;;;;2.73;0.50;;;;;;;17.45;70.72;100698.47;125816;1096;22788;-79
2021/08/09 06:03:49;;;;;;;3.30;0.50;;;;;;;17.57;70.26;100696.41;125763;1095;22870;-80
2021/08/09 06:06:21;;;;;;;2.97;0.43;;;;;;;17.66;69.52;100698.96;125758;1095;22983;-78
2021/08/09 06:08:53;;;;;;;2.60;0.50;;;;;;;17.70;69.32;100700.23;125716;1096;22800;-79
2021/08/09 06:11:28;;;;;;;2.65;0.30;;;;;;;17.73;67.60;100693.55;125711;1096;22873;-79
2021/08/09 06:13:59;;;;;;;3.10;0.50;;;;;;;17.78;67.82;100703.29;125676;1096;24481;-79
2021/08/09 06:16:30;;;;;;;2.90;0.50;;;;;;;17.83;67.87;100705.34;125761;1097;27325;-78
2021/08/09 06:19:01;;;;;;;1.85;0.40;;;;;;;17.92;67.98;100698.64;125791;1097;25896;-79
2021/08/09 06:21:32;;;;;;;3.45;0.60;;;;;;;18.00;67.15;100696.81;125696;1096;22787;-78
2021/08/09 06:24:03;;;;;;;2.55;0.40;;;;;;;18.05;66.88;100696.77;125776;1095;22887;-79
2021/08/09 06:26:35;;;;;;;3.35;0.40;;;;;;;18.10;66.80;100701.65;125744;1096;22788;-79
2021/08/09 06:29:08;;;;;;;7.75;0.50;;;;;;;18.15;65.97;100706.48;125752;1096;22874;-80
2021/08/09 06:31:39;;;;;;;1.85;0.40;;;;;;;18.22;65.24;100708.01;125728;1096;26299;-79
2021/08/09 06:34:19;;;;;;;5.30;0.73;;;;;;;18.26;65.30;100706.45;125773;1096;22891;-79
2021/08/09 06:36:52;;;;;;;2.90;0.40;;;;;;;18.33;64.33;100702.31;125727;1096;22779;-79
2021/08/09 06:39:26;;;;;;;9.10;0.60;;;;;;;18.39;64.16;100698.14;125757;1095;22819;-78
2021/08/09 06:42:02;;;;;;;4.80;0.40;;;;;;;18.43;64.05;100698.69;125853;1096;27822;-78
2021/08/09 06:44:38;;;;;;;2.90;0.40;;;;;;;18.50;63.52;100706.59;125794;1095;26274;-80
2021/08/09 06:47:10;;;;;;;3.95;0.40;;;;;;;18.54;63.14;100712.73;125769;1096;22885;-80
2021/08/09 06:49:41;;;;;;;1.55;0.40;;;;;;;18.58;62.25;100712.45;125802;1095;27129;-78
2021/08/09 06:52:12;;;;;;;1.65;0.40;;;;;;;18.61;61.82;100719.13;125779;1095;22817;-81
2021/08/09 06:54:44;;;;;;;3.40;0.50;;;;;;;18.64;61.55;100718.87;125760;1096;26562;-78
2021/08/09 06:57:15;;;;;;;5.30;0.60;;;;;;;18.70;61.15;100711.11;125787;1096;26102;-78
2021/08/09 06:59:46;;;;;;;4.17;0.53;;;;;;;18.74;60.77;100716.48;125735;1096;22785;-79
2021/08/09 07:02:17;;;;;;;1.17;0.27;;;;;;;18.77;59.91;100712.59;125754;1096;25995;-80
2021/08/09 07:04:48;;;;;;;3.20;0.50;;;;;;;18.81;60.00;100715.93;125789;1096;22786;-78
2021/08/09 07:07:21;;;;;;;4.45;0.50;;;;;;;18.86;59.67;100723.59;125720;1095;25864;-79
2021/08/09 07:09:53;;;;;;;3.05;0.40;;;;;;;18.88;59.82;100716.13;125896;1096;22918;-79
2021/08/09 07:12:24;;;;;;;4.17;0.70;;;;;;;18.90;59.26;100712.76;125774;1096;22774;-79
2021/08/09 07:14:56;;;;;;;3.75;0.35;;;;;;;18.94;59.63;100708.36;125722;1096;22786;-78
2021/08/09 07:17:28;;;;;;;5.97;0.43;;;;;;;19.00;59.73;100720.40;125737;1096;26014;-77
2021/08/09 07:20:00;;;;;;;2.90;0.47;;;;;;;19.07;59.21;100719.84;125737;1095;22792;-79
2021/08/09 07:22:31;;;;;;;1.85;0.50;;;;;;;19.16;59.07;100721.58;125755;1096;22868;-79
2021/08/09 07:25:03;;;;;;;2.70;0.40;;;;;;;19.23;58.56;100720.98;125705;1096;22989;-78
2021/08/09 07:27:34;;;;;;;2.80;0.40;;;;;;;19.24;58.80;100720.45;125702;1096;22789;-79
2021/08/09 07:30:09;;;;;;;1.03;0.23;;;;;;;19.31;57.93;100719.88;125679;1096;27526;-78
2021/08/09 07:32:41;;;;;;;1.30;0.23;;;;;;;19.34;57.41;100721.70;125759;1096;27763;-78
2021/08/09 07:35:13;;;;;;;3.00;0.50;;;;;;;19.35;57.46;100717.56;125750;1096;22786;-78
2021/08/09 07:37:45;;;;;;;3.33;0.40;;;;;;;19.39;57.33;100720.09;125716;1096;22877;-78
2021/08/09 07:40:16;;;;;;;8.50;0.33;;;;;;;19.46;56.97;100721.58;125745;1096;25883;-79
2021/08/09 07:42:48;;;;;;;2.70;0.37;;;;;;;19.51;56.51;100713.05;125662;1096;22806;-79
2021/08/09 07:45:19;;;;;;;3.50;0.30;;;;;;;19.55;56.28;100724.85;125701;1096;22874;-79
2021/08/09 07:47:53;;;;;;;6.43;0.47;;;;;;;19.59;56.01;100728.16;125652;1096;22764;-79
2021/08/09 07:50:26;;;;;;;2.90;0.30;;;;;;;19.65;55.93;100716.76;125770;1096;22783;-80
2021/08/09 07:53:00;;;;;;;1.93;0.30;;;;;;;19.63;55.45;100720.13;125718;1096;26274;-80
2021/08/09 07:55:32;;;;;;;2.68;0.30;;;;;;;19.65;56.00;100722.42;126045;1096;22883;-79
2021/08/09 07:58:03;;;;;;;6.05;0.40;;;;;;;19.75;55.27;100715.10;125677;1096;22861;-79
2021/08/09 08:00:35;;;;;;;2.50;0.30;;;;;;;19.80;54.98;100720.70;125692;1096;23581;-79
2021/08/09 08:03:07;;;;;;;2.60;0.50;;;;;;;19.85;55.11;100713.44;125662;1095;22816;-79
2021/08/09 08:05:39;;;;;;;3.00;0.30;;;;;;;19.93;55.05;100717.21;125655;1096;22880;-79
2021/08/09 08:08:15;;;;;;;3.58;0.40;;;;;;;19.93;53.85;100714.38;125687;1096;22879;-80
2021/08/09 08:10:46;;;;;;;3.87;0.40;;;;;;;19.93;55.18;100706.65;125739;1095;22802;-80
2021/08/09 08:13:17;;;;;;;4.57;0.50;;;;;;;20.02;55.54;100714.80;125841;1096;22807;-78
2021/08/09 08:15:48;;;;;;;3.55;0.40;;;;;;;20.12;55.00;100724.47;125798;1096;22809;-79
2021/08/09 08:18:20;;;;;;;6.23;0.50;;;;;;;20.20;54.40;100713.30;125810;1096;25944;-78
2021/08/09 08:20:54;;;;;;;4.07;0.30;;;;;;;20.23;54.33;100712.25;125656;1096;22773;-78
2021/08/09 08:23:25;;;;;;;4.80;0.50;;;;;;;20.27;54.67;100715.55;125832;1096;22839;-78
2021/08/09 08:25:57;;;;;;;2.43;0.50;;;;;;;20.32;54.11;100709.02;125763;1096;26533;-80
2021/08/09 08:28:29;;;;;;;3.35;0.63;;;;;;;20.34;54.13;100714.92;125692;1096;22790;-78
2021/08/09 08:31:01;;;;;;;3.58;0.50;;;;;;;20.36;54.07;100709.48;125694;1096;22832;-78
2021/08/09 08:33:33;;;;;;;4.30;0.40;;;;;;;20.45;54.77;100714.78;125841;1096;22877;-79
2021/08/09 08:36:05;;;;;;;2.37;0.40;;;;;;;20.59;53.75;100709.94;125818;1095;24513;-79
2021/08/09 08:38:36;;;;;;;1.35;0.40;;;;;;;20.61;53.29;100713.77;125833;1095;22792;-78
2021/08/09 08:41:09;;;;;;;3.38;0.45;;;;;;;20.67;53.07;100702.36;125865;1096;22946;-79
2021/08/09 08:43:43;;;;;;;2.23;0.50;;;;;;;20.74;53.38;100705.33;125845;1096;22795;-78
2021/08/09 08:46:14;;;;;;;4.25;0.50;;;;;;;20.83;53.41;100707.78;125790;1096;25999;-78
2021/08/09 08:48:46;;;;;;;2.65;0.50;;;;;;;20.92;52.80;100701.69;125722;1096;22821;-79
2021/08/09 08:51:20;;;;;;;2.53;0.30;;;;;;;20.95;52.50;100702.69;125723;1096;24505;-79
2021/08/09 08:53:52;;;;;;;4.33;0.48;;;;;;;21.01;52.38;100711.88;125806;1094;22789;-78
2021/08/09 08:56:23;;;;;;;2.45;0.30;;;;;;;21.06;52.37;100707.45;125772;1096;27354;-78
2021/08/09 08:58:55;;;;;;;1.93;0.40;;;;;;;21.14;51.48;100703.44;125737;1095;26309;-79
2021/08/09 09:01:40;;;;;;;3.70;0.50;;;;;;;21.17;51.44;100708.02;125802;1096;25979;-79
2021/08/09 09:04:31;;;;;;;1.98;0.30;;;;;;;21.18;50.89;100703.89;125747;1095;22827;-79
2021/08/09 09:07:06;;;;;;;2.43;0.40;;;;;;;21.21;50.21;100699.20;125816;1096;22801;-79
2021/08/09 09:09:40;;;;;;;2.55;0.38;;;;;;;21.28;51.33;100696.48;125880;1096;22783;-79
2021/08/09 09:12:20;;;;;;;1.57;0.30;;;;;;;21.37;49.79;100704.59;125807;1096;26274;-78
2021/08/09 09:15:04;;;;;;;6.30;0.40;;;;;;;21.39;50.12;100701.20;125890;1096;22783;-79
2021/08/09 09:17:37;;;;;;;7.30;0.40;;;;;;;21.49;49.62;100707.99;125807;1096;26098;-78
2021/08/09 09:20:26;;;;;;;2.45;0.30;;;;;;;21.56;49.80;100699.58;125925;1095;27328;-81
2021/08/09 09:23:19;;;;;;;2.53;0.33;;;;;;;21.65;50.21;100695.55;125758;1095;22925;-78
2021/08/09 09:25:53;;;;;;;3.25;0.40;;;;;;;21.77;49.72;100696.11;125725;1097;22849;-79
2021/08/09 09:28:33;;;;;;;2.60;0.43;;;;;;;21.78;49.15;100709.00;125757;1096;27370;-79
2021/08/09 09:31:07;;;;;;;3.00;0.40;;;;;;;21.74;49.65;100701.58;125699;1096;23327;-78
2021/08/09 09:33:46;;;;;;;3.13;0.40;;;;;;;21.87;49.72;100708.60;125835;1096;22814;-78
2021/08/09 09:36:21;;;;;;;3.65;0.38;;;;;;;21.98;49.08;100706.30;125809;1096;22826;-78
2021/08/09 09:38:53;;;;;;;3.43;0.40;;;;;;;22.09;48.62;100706.08;126003;1096;27322;-78
2021/08/09 09:41:25;;;;;;;2.93;0.30;;;;;;;22.15;48.36;100697.42;125906;1095;22863;-79
2021/08/09 09:43:56;;;;;;;2.25;0.40;;;;;;;22.18;47.96;100702.77;125634;1096;22788;-79
2021/08/09 09:46:29;;;;;;;1.48;0.30;;;;;;;22.23;47.88;100704.73;125782;1096;22803;-80
2021/08/09 09:49:05;;;;;;;5.38;0.40;;;;;;;22.33;48.19;100700.13;125867;1096;22912;-79
2021/08/09 09:51:45;;;;;;;3.03;0.43;;;;;;;22.42;47.73;100698.91;125665;1095;27317;-79
2021/08/09 09:54:16;;;;;;;2.80;0.40;;;;;;;22.50;48.43;100691.98;125692;1096;22773;-79
2021/08/09 09:56:48;;;;;;;3.88;0.40;;;;;;;22.52;47.42;100688.58;125760;1097;23549;-80
2021/08/09 09:59:21;;;;;;;4.08;0.40;;;;;;;22.53;47.15;100690.13;125984;1096;22794;-79
2021/08/09 10:01:53;;;;;;;3.03;0.28;;;;;;;22.56;47.10;100689.00;125774;1096;26022;-79
2021/08/09 10:04:27;;;;;;;2.10;0.37;;;;;;;22.60;45.91;100686.61;125728;1097;23235;-79
2021/08/09 10:07:03;;;;;;;2.50;0.38;;;;;;;22.64;46.14;100687.03;125775;1095;22889;-79
2021/08/09 10:09:34;;;;;;;2.35;0.40;;;;;;;22.65;46.24;100694.27;125820;1096;22802;-78
2021/08/09 10:12:10;;;;;;;2.10;0.40;;;;;;;22.71;45.40;100692.06;125717;1096;25802;-79
2021/08/09 10:14:41;;;;;;;2.00;0.30;;;;;;;22.74;45.01;100696.63;125935;1095;27347;-79
2021/08/09 10:17:14;;;;;;;1.83;0.28;;;;;;;22.67;45.10;100696.56;125768;1096;22790;-78
2021/08/09 10:19:49;;;;;;;4.10;0.43;;;;;;;22.70;45.73;100693.36;125785;1096;22783;-78
2021/08/09 10:22:24;;;;;;;4.25;0.40;;;;;;;22.71;44.96;100689.21;125752;1096;22858;-79
2021/08/09 10:24:57;;;;;;;2.15;0.20;;;;;;;22.78;45.68;100690.61;125895;1096;22870;-76
2021/08/09 10:27:56;;;;;;;3.85;0.40;;;;;;;22.87;45.35;100692.97;125894;1096;22861;-78
2021/08/09 10:30:36;;;;;;;4.35;0.40;;;;;;;22.98;45.48;100692.70;125831;1096;27307;-78
2021/08/09 10:33:09;;;;;;;2.93;0.40;;;;;;;23.08;44.73;100703.06;125835;1095;22800;-79
2021/08/09 10:36:03;;;;;;;1.93;0.30;;;;;;;23.16;44.88;100700.27;125870;1096;22921;-79
2021/08/09 10:38:43;;;;;;;4.08;0.40;;;;;;;23.20;44.44;100698.61;125839;1095;23561;-79
2021/08/09 10:41:38;;;;;;;0.73;0.20;;;;;;;23.22;44.32;100695.97;125756;1096;24441;-78
2021/08/09 10:44:26;;;;;;;1.53;0.30;;;;;;;23.29;44.90;100686.73;125770;1096;27797;-79
2021/08/09 10:46:58;;;;;;;1.83;0.30;;;;;;;23.40;44.82;100690.64;125853;1096;25893;-79
2021/08/09 10:49:58;;;;;;;2.45;0.35;;;;;;;23.44;44.37;100688.97;125894;1096;27233;-79
2021/08/09 10:52:45;;;;;;;4.93;0.30;;;;;;;23.46;43.09;100689.17;125743;1096;22850;-81
2021/08/09 10:55:48;;;;;;;3.18;0.40;;;;;;;23.36;43.17;100682.42;125783;1096;22873;-79
2021/08/09 10:58:58;;;;;;;3.13;0.40;;;;;;;23.28;43.25;100681.56;125768;1096;22802;-78
2021/08/09 11:02:02;;;;;;;6.05;0.60;;;;;;;23.22;43.40;100690.27;125707;1096;22945;-79
2021/08/09 11:04:34;;;;;;;3.97;0.30;;;;;;;23.24;43.48;100687.63;125729;1096;24490;-78
2021/08/09 11:07:17;;;;;;;1.88;0.30;;;;;;;23.29;43.54;100689.58;125760;1096;27335;-78
2021/08/09 11:09:49;;;;;;;3.48;0.30;;;;;;;23.30;43.09;100691.09;125837;1096;23068;-80
2021/08/09 11:12:26;;;;;;;2.88;0.40;;;;;;;23.30;42.56;100679.70;125871;1096;22861;-79
2021/08/09 11:15:23;;;;;;;1.98;0.23;;;;;;;23.29;43.42;100678.19;125802;1095;22731;-79
2021/08/09 11:18:01;;;;;;;4.33;0.40;;;;;;;23.23;42.32;100680.41;125738;1096;27759;-80
2021/08/09 11:20:34;;;;;;;3.43;0.40;;;;;;;23.23;42.87;100680.41;125733;1096;22783;-80
2021/08/09 11:23:10;;;;;;;2.58;0.30;;;;;;;23.31;43.04;100681.23;125846;1095;22776;-80
2021/08/09 11:25:43;;;;;;;1.00;0.30;;;;;;;23.38;43.07;100681.88;125788;1096;23034;-78
2021/08/09 11:28:17;;;;;;;3.20;0.28;;;;;;;23.44;43.32;100686.13;125848;1096;25970;-80
2021/08/09 11:30:51;;;;;;;3.23;0.30;;;;;;;23.47;42.90;100684.98;125854;1095;22855;-78
2021/08/09 11:33:32;;;;;;;2.73;0.40;;;;;;;23.50;42.45;100680.27;125757;1097;26284;-78
2021/08/09 11:36:06;;;;;;;7.40;0.33;;;;;;;23.56;43.35;100678.80;125860;1096;27349;-79
2021/08/09 11:38:47;;;;;;;2.38;0.40;;;;;;;23.69;42.74;100675.08;125796;1096;26011;-79
2021/08/09 11:41:19;;;;;;;2.88;0.40;;;;;;;23.82;42.88;100672.87;125829;1096;23021;-79
2021/08/09 11:43:53;;;;;;;3.43;0.43;;;;;;;23.91;42.00;100677.30;125720;1095;22790;-79
2021/08/09 11:46:24;;;;;;;1.98;0.40;;;;;;;23.89;41.60;100683.56;125806;1096;22816;-78
2021/08/09 11:48:56;;;;;;;3.18;0.30;;;;;;;23.87;42.13;100674.04;125774;1095;22813;-79